PWSweather.com
Personal Weather Stations
Station Observations
TOBYTEX1
Castle Hills North, Lewisville, TX 75056

Castle Hills NorthLewisville, TX 75056

Lat: 33.053555, Lon: -96.909778

Elevation: 527

Station Type: Davis Vantage Pro2 Plus

Latest ConditionsUpdated 8:22:48 PM CST Friday, Feb 23, 2018
Currently Today's Max Today's Min Today's Average
Temperature 47.5°F8.6°C 51.1°F10.6°C 38.7°F3.7°C 43.7°F6.5°C
Dew Point 46.0°F7.8°C 49.5°F9.7°C 36.9°F2.7°C 42.2°F5.7°C
Winds 0.9 mph NW1.4 kmh NW 2.9 mph ENE4.7 kmh ENE - 0.8 mph 1.3 kmh
Wind Gusts 4.0 mph6.4 kmh 8.1 mph13.0 kmh - -
Humidity 95% 96% 93% 94%
Pressure 30.04 in1017.3 mb 30.26 in1024.7 mb 30.04 in1017.3 mb -
Precipitation - 0.32 in8.1 mm - -
Hour Temp Dew Point Humidity Winds Wind Gusts Pressure Precip Precip Rate Daily Precip Total
08:22 PM 47.5°F8.6°C 46.0°F7.8°C 95% 0.9 mph NW1.4 kmh NW 4.0 mph6.4 kmh 30.04 in1017.3 mb 0.00 in0.0 mm 0.00 in0.0 mm 0.32 in8.1 mm
08:17 PM 47.5°F8.6°C 46.0°F7.8°C 95% 0.9 mph NW1.4 kmh NW 2.9 mph4.7 kmh 30.05 in1017.6 mb 0.00 in0.0 mm 0.00 in0.0 mm 0.32 in8.1 mm
08:12 PM 47.7°F8.7°C 46.2°F7.9°C 95% 0.9 mph NW1.4 kmh NW 4.9 mph7.9 kmh 30.04 in1017.3 mb 0.00 in0.0 mm 0.00 in0.0 mm 0.32 in8.1 mm
08:07 PM 47.7°F8.7°C 46.2°F7.9°C 95% 0.9 mph NW1.4 kmh NW 2.9 mph4.7 kmh 30.04 in1017.3 mb 0.00 in0.0 mm 0.00 in0.0 mm 0.32 in8.1 mm
08:02 PM 47.7°F8.7°C 46.2°F7.9°C 95% 2.0 mph NW3.2 kmh NW 2.9 mph4.7 kmh 30.05 in1017.6 mb 0.00 in0.0 mm 0.00 in0.0 mm 0.32 in8.1 mm
07:57 PM 47.7°F8.7°C 46.2°F7.9°C 95% 2.0 mph NNW3.2 kmh NNW 4.0 mph6.4 kmh 30.04 in1017.3 mb 0.00 in0.0 mm 0.00 in0.0 mm 0.32 in8.1 mm
07:52 PM 47.8°F8.8°C 46.4°F8.0°C 95% 0.9 mph NW1.4 kmh NW 2.9 mph4.7 kmh 30.05 in1017.6 mb 0.01 in0.3 mm 0.00 in0.0 mm 0.32 in8.1 mm
07:47 PM 47.8°F8.8°C 46.4°F8.0°C 95% 0.9 mph NW1.4 kmh NW 2.9 mph4.7 kmh 30.05 in1017.6 mb 0.01 in0.3 mm 0.00 in0.0 mm 0.32 in8.1 mm
07:42 PM 47.8°F8.8°C 46.4°F8.0°C 95% 0.9 mph NW1.4 kmh NW 2.9 mph4.7 kmh 30.05 in1017.6 mb 0.01 in0.3 mm 0.00 in0.0 mm 0.32 in8.1 mm
07:37 PM 47.8°F8.8°C 46.4°F8.0°C 95% 0.9 mph WNW1.4 kmh WNW 2.0 mph3.2 kmh 30.04 in1017.3 mb 0.01 in0.3 mm 0.00 in0.0 mm 0.32 in8.1 mm
07:32 PM 47.8°F8.8°C 46.4°F8.0°C 95% 0.9 mph NW1.4 kmh NW 2.9 mph4.7 kmh 30.04 in1017.3 mb 0.01 in0.3 mm 0.00 in0.0 mm 0.32 in8.1 mm
07:27 PM 47.8°F8.8°C 46.4°F8.0°C 95% 0.9 mph NW1.4 kmh NW 2.9 mph4.7 kmh 30.04 in1017.3 mb 0.01 in0.3 mm 0.00 in0.0 mm 0.32 in8.1 mm
07:22 PM 47.8°F8.8°C 46.4°F8.0°C 95% 0.9 mph W1.4 kmh W 2.0 mph3.2 kmh 30.04 in1017.3 mb 0.01 in0.3 mm 0.00 in0.0 mm 0.32 in8.1 mm
07:17 PM 47.7°F8.7°C 46.2°F7.9°C 95% 0.9 mph W1.4 kmh W 2.9 mph4.7 kmh 30.04 in1017.3 mb 0.01 in0.3 mm 0.00 in0.0 mm 0.32 in8.1 mm
07:12 PM 47.7°F8.7°C 46.2°F7.9°C 95% 0.9 mph WSW1.4 kmh WSW 2.0 mph3.2 kmh 30.04 in1017.3 mb 0.01 in0.3 mm 0.00 in0.0 mm 0.32 in8.1 mm
07:07 PM 47.7°F8.7°C 46.2°F7.9°C 95% 0.9 mph W1.4 kmh W 2.9 mph4.7 kmh 30.04 in1017.3 mb 0.01 in0.3 mm 0.00 in0.0 mm 0.32 in8.1 mm
07:01 PM 47.7°F8.7°C 46.2°F7.9°C 95% 0.9 mph W1.4 kmh W 2.0 mph3.2 kmh 30.04 in1017.3 mb 0.01 in0.3 mm 0.00 in0.0 mm 0.32 in8.1 mm
06:56 PM 47.7°F8.7°C 46.2°F7.9°C 95% Calm Calm 2.0 mph3.2 kmh 30.04 in1017.3 mb 0.01 in0.3 mm 0.12 in3.0 mm 0.32 in8.1 mm
06:51 PM 47.7°F8.7°C 46.2°F7.9°C 95% Calm Calm 0.9 mph1.4 kmh 30.04 in1017.3 mb 0.00 in0.0 mm 0.00 in0.0 mm 0.31 in7.9 mm
06:46 PM 47.7°F8.7°C 46.2°F7.9°C 95% Calm Calm 0.9 mph1.4 kmh 30.04 in1017.3 mb 0.00 in0.0 mm 0.00 in0.0 mm 0.31 in7.9 mm
06:41 PM 47.7°F8.7°C 46.2°F7.9°C 95% Calm Calm 0.9 mph1.4 kmh 30.04 in1017.3 mb 0.00 in0.0 mm 0.00 in0.0 mm 0.31 in7.9 mm
06:36 PM 47.7°F8.7°C 46.2°F7.9°C 95% Calm Calm 2.0 mph3.2 kmh 30.04 in1017.3 mb 0.00 in0.0 mm 0.00 in0.0 mm 0.31 in7.9 mm
06:31 PM 47.8°F8.8°C 46.4°F8.0°C 95% Calm Calm 2.0 mph3.2 kmh 30.04 in1017.3 mb 0.00 in0.0 mm 0.00 in0.0 mm 0.31 in7.9 mm
06:26 PM 47.8°F8.8°C 46.4°F8.0°C 95% Calm Calm 0.9 mph1.4 kmh 30.04 in1017.3 mb 0.00 in0.0 mm 0.00 in0.0 mm 0.31 in7.9 mm
06:21 PM 47.8°F8.8°C 46.2°F7.9°C 94% 0.9 mph W1.4 kmh W 2.0 mph3.2 kmh 30.05 in1017.6 mb 0.00 in0.0 mm 0.00 in0.0 mm 0.31 in7.9 mm
06:16 PM 47.8°F8.8°C 46.2°F7.9°C 94% 0.9 mph W1.4 kmh W 4.0 mph6.4 kmh 30.05 in1017.6 mb 0.00 in0.0 mm 0.00 in0.0 mm 0.31 in7.9 mm
06:11 PM 47.8°F8.8°C 46.2°F7.9°C 94% 0.9 mph W1.4 kmh W 4.0 mph6.4 kmh 30.05 in1017.6 mb 0.00 in0.0 mm 0.00 in0.0 mm 0.31 in7.9 mm
06:06 PM 47.8°F8.8°C 46.2°F7.9°C 94% 0.9 mph W1.4 kmh W 2.9 mph4.7 kmh 30.05 in1017.6 mb 0.00 in0.0 mm 0.00 in0.0 mm 0.31 in7.9 mm
06:01 PM 47.8°F8.8°C 46.2°F7.9°C 94% 0.9 mph W1.4 kmh W 2.9 mph4.7 kmh 30.05 in1017.6 mb 0.00 in0.0 mm 0.00 in0.0 mm 0.31 in7.9 mm
05:56 PM 47.8°F8.8°C 46.2°F7.9°C 94% 0.9 mph W1.4 kmh W 4.0 mph6.4 kmh 30.05 in1017.6 mb 0.00 in0.0 mm 0.00 in0.0 mm 0.31 in7.9 mm
05:51 PM 48.0°F8.9°C 46.4°F8.0°C 94% 0.9 mph WNW1.4 kmh WNW 4.0 mph6.4 kmh 30.06 in1017.9 mb 0.00 in0.0 mm 0.00 in0.0 mm 0.31 in7.9 mm
05:46 PM 48.0°F8.9°C 46.4°F8.0°C 94% 0.9 mph W1.4 kmh W 2.0 mph3.2 kmh 30.05 in1017.6 mb 0.00 in0.0 mm 0.00 in0.0 mm 0.31 in7.9 mm
05:41 PM 48.0°F8.9°C 46.4°F8.0°C 94% 0.9 mph W1.4 kmh W 2.0 mph3.2 kmh 30.05 in1017.6 mb 0.00 in0.0 mm 0.00 in0.0 mm 0.31 in7.9 mm
05:36 PM 48.2°F9.0°C 46.6°F8.1°C 94% 0.9 mph W1.4 kmh W 2.9 mph4.7 kmh 30.05 in1017.6 mb 0.00 in0.0 mm 0.00 in0.0 mm 0.31 in7.9 mm
05:31 PM 48.2°F9.0°C 46.6°F8.1°C 94% 0.9 mph WNW1.4 kmh WNW 2.9 mph4.7 kmh 30.05 in1017.6 mb 0.00 in0.0 mm 0.00 in0.0 mm 0.31 in7.9 mm
05:26 PM 48.4°F9.1°C 46.8°F8.2°C 94% 0.9 mph W1.4 kmh W 2.9 mph4.7 kmh 30.05 in1017.6 mb 0.00 in0.0 mm 0.00 in0.0 mm 0.31 in7.9 mm
05:21 PM 48.4°F9.1°C 46.8°F8.2°C 94% 0.9 mph WNW1.4 kmh WNW 2.9 mph4.7 kmh 30.06 in1017.9 mb 0.00 in0.0 mm 0.00 in0.0 mm 0.31 in7.9 mm
05:16 PM 48.4°F9.1°C 46.8°F8.2°C 94% 0.9 mph WNW1.4 kmh WNW 2.9 mph4.7 kmh 30.06 in1017.9 mb 0.00 in0.0 mm 0.00 in0.0 mm 0.31 in7.9 mm
05:11 PM 48.4°F9.1°C 46.8°F8.2°C 94% 0.9 mph WNW1.4 kmh WNW 2.0 mph3.2 kmh 30.06 in1017.9 mb 0.00 in0.0 mm 0.00 in0.0 mm 0.31 in7.9 mm
05:06 PM 48.6°F9.2°C 46.9°F8.3°C 94% 0.9 mph NW1.4 kmh NW 2.0 mph3.2 kmh 30.06 in1017.9 mb 0.00 in0.0 mm 0.00 in0.0 mm 0.31 in7.9 mm
05:01 PM 48.6°F9.2°C 46.6°F8.1°C 93% 0.9 mph W1.4 kmh W 2.9 mph4.7 kmh 30.06 in1017.9 mb 0.00 in0.0 mm 0.00 in0.0 mm 0.31 in7.9 mm
04:56 PM 48.7°F9.3°C 46.8°F8.2°C 93% 0.9 mph W1.4 kmh W 2.0 mph3.2 kmh 30.06 in1017.9 mb 0.00 in0.0 mm 0.00 in0.0 mm 0.31 in7.9 mm
04:51 PM 48.7°F9.3°C 46.8°F8.2°C 93% 0.9 mph W1.4 kmh W 2.9 mph4.7 kmh 30.05 in1017.6 mb 0.00 in0.0 mm 0.00 in0.0 mm 0.31 in7.9 mm
04:46 PM 48.9°F9.4°C 46.9°F8.3°C 93% 2.0 mph W3.2 kmh W 2.9 mph4.7 kmh 30.06 in1017.9 mb 0.00 in0.0 mm 0.00 in0.0 mm 0.31 in7.9 mm
04:40 PM 49.3°F9.6°C 47.3°F8.5°C 93% 0.9 mph W1.4 kmh W 2.9 mph4.7 kmh 30.06 in1017.9 mb 0.00 in0.0 mm 0.00 in0.0 mm 0.31 in7.9 mm
04:35 PM 49.5°F9.7°C 47.5°F8.6°C 93% 0.9 mph W1.4 kmh W 2.9 mph4.7 kmh 30.06 in1017.9 mb 0.00 in0.0 mm 0.00 in0.0 mm 0.31 in7.9 mm
04:30 PM 50.0°F10.0°C 48.0°F8.9°C 93% 0.9 mph W1.4 kmh W 2.9 mph4.7 kmh 30.06 in1017.9 mb 0.00 in0.0 mm 0.00 in0.0 mm 0.31 in7.9 mm
04:25 PM 50.9°F10.5°C 48.9°F9.4°C 93% 0.9 mph W1.4 kmh W 2.9 mph4.7 kmh 30.06 in1017.9 mb 0.00 in0.0 mm 0.00 in0.0 mm 0.31 in7.9 mm
04:20 PM 51.1°F10.6°C 49.5°F9.7°C 94% Calm Calm 2.0 mph3.2 kmh 30.05 in1017.6 mb 0.00 in0.0 mm 0.00 in0.0 mm 0.31 in7.9 mm
04:15 PM 51.1°F10.6°C 49.5°F9.7°C 94% Calm Calm 2.0 mph3.2 kmh 30.05 in1017.6 mb 0.00 in0.0 mm 0.00 in0.0 mm 0.31 in7.9 mm
04:10 PM 51.1°F10.6°C 49.5°F9.7°C 94% 0.9 mph E1.4 kmh E 2.0 mph3.2 kmh 30.05 in1017.6 mb 0.00 in0.0 mm 0.00 in0.0 mm 0.31 in7.9 mm
04:05 PM 51.1°F10.6°C 49.5°F9.7°C 94% 0.9 mph E1.4 kmh E 2.0 mph3.2 kmh 30.06 in1017.9 mb 0.00 in0.0 mm 0.00 in0.0 mm 0.31 in7.9 mm
04:00 PM 50.9°F10.5°C 49.3°F9.6°C 94% 0.9 mph E1.4 kmh E 2.0 mph3.2 kmh 30.05 in1017.6 mb 0.00 in0.0 mm 0.00 in0.0 mm 0.31 in7.9 mm
03:55 PM 50.9°F10.5°C 49.3°F9.6°C 94% 0.9 mph E1.4 kmh E 2.0 mph3.2 kmh 30.05 in1017.6 mb 0.00 in0.0 mm 0.00 in0.0 mm 0.31 in7.9 mm
03:50 PM 50.7°F10.4°C 49.1°F9.5°C 94% 0.9 mph S1.4 kmh S 2.0 mph3.2 kmh 30.05 in1017.6 mb 0.00 in0.0 mm 0.00 in0.0 mm 0.31 in7.9 mm
03:45 PM 50.7°F10.4°C 48.7°F9.3°C 93% Calm Calm 2.0 mph3.2 kmh 30.05 in1017.6 mb 0.00 in0.0 mm 0.00 in0.0 mm 0.31 in7.9 mm
03:40 PM 50.7°F10.4°C 48.7°F9.3°C 93% Calm Calm 0.9 mph1.4 kmh 30.06 in1017.9 mb 0.00 in0.0 mm 0.00 in0.0 mm 0.31 in7.9 mm
03:35 PM 50.5°F10.3°C 48.6°F9.2°C 93% Calm Calm 2.0 mph3.2 kmh 30.06 in1017.9 mb 0.00 in0.0 mm 0.00 in0.0 mm 0.31 in7.9 mm
03:30 PM 50.5°F10.3°C 48.6°F9.2°C 93% 0.9 mph S1.4 kmh S 2.0 mph3.2 kmh 30.06 in1017.9 mb 0.00 in0.0 mm 0.00 in0.0 mm 0.31 in7.9 mm
03:25 PM 50.5°F10.3°C 48.6°F9.2°C 93% 0.9 mph S1.4 kmh S 2.0 mph3.2 kmh 30.06 in1017.9 mb 0.00 in0.0 mm 0.00 in0.0 mm 0.31 in7.9 mm
03:20 PM 50.5°F10.3°C 48.6°F9.2°C 93% 0.9 mph ENE1.4 kmh ENE 2.9 mph4.7 kmh 30.06 in1017.9 mb 0.00 in0.0 mm 0.00 in0.0 mm 0.31 in7.9 mm
03:15 PM 50.4°F10.2°C 48.7°F9.3°C 94% 2.0 mph ENE3.2 kmh ENE 6.0 mph9.7 kmh 30.06 in1017.9 mb 0.00 in0.0 mm 0.00 in0.0 mm 0.31 in7.9 mm
03:10 PM 50.4°F10.2°C 48.7°F9.3°C 94% 2.0 mph NE3.2 kmh NE 4.0 mph6.4 kmh 30.06 in1017.9 mb 0.00 in0.0 mm 0.00 in0.0 mm 0.31 in7.9 mm
03:05 PM 50.4°F10.2°C 48.7°F9.3°C 94% 2.0 mph S3.2 kmh S 6.0 mph9.7 kmh 30.06 in1017.9 mb 0.00 in0.0 mm 0.00 in0.0 mm 0.31 in7.9 mm
03:00 PM 50.4°F10.2°C 48.7°F9.3°C 94% 2.0 mph SE3.2 kmh SE 4.9 mph7.9 kmh 30.06 in1017.9 mb 0.00 in0.0 mm 0.00 in0.0 mm 0.31 in7.9 mm
02:55 PM 50.2°F10.1°C 48.2°F9.0°C 93% 2.0 mph ENE3.2 kmh ENE 6.0 mph9.7 kmh 30.06 in1017.9 mb 0.00 in0.0 mm 0.00 in0.0 mm 0.31 in7.9 mm
02:50 PM 50.0°F10.0°C 48.0°F8.9°C 93% 2.0 mph NE3.2 kmh NE 6.0 mph9.7 kmh 30.07 in1018.3 mb 0.00 in0.0 mm 0.00 in0.0 mm 0.31 in7.9 mm
02:45 PM 50.0°F10.0°C 48.0°F8.9°C 93% 2.0 mph E3.2 kmh E 6.0 mph9.7 kmh 30.07 in1018.3 mb 0.00 in0.0 mm 0.00 in0.0 mm 0.31 in7.9 mm
02:40 PM 50.0°F10.0°C 48.0°F8.9°C 93% 2.0 mph ENE3.2 kmh ENE 4.9 mph7.9 kmh 30.08 in1018.6 mb 0.00 in0.0 mm 0.00 in0.0 mm 0.31 in7.9 mm
02:35 PM 49.8°F9.9°C 48.2°F9.0°C 94% 2.0 mph ENE3.2 kmh ENE 2.9 mph4.7 kmh 30.08 in1018.6 mb 0.00 in0.0 mm 0.00 in0.0 mm 0.31 in7.9 mm
02:30 PM 49.8°F9.9°C 47.8°F8.8°C 93% 2.0 mph NE3.2 kmh NE 4.0 mph6.4 kmh 30.08 in1018.6 mb 0.00 in0.0 mm 0.00 in0.0 mm 0.31 in7.9 mm
02:25 PM 49.8°F9.9°C 48.2°F9.0°C 94% 2.0 mph E3.2 kmh E 4.0 mph6.4 kmh 30.08 in1018.6 mb 0.00 in0.0 mm 0.00 in0.0 mm 0.31 in7.9 mm
02:20 PM 49.6°F9.8°C 48.0°F8.9°C 94% 0.9 mph NE1.4 kmh NE 2.9 mph4.7 kmh 30.09 in1019.0 mb 0.00 in0.0 mm 0.00 in0.0 mm 0.31 in7.9 mm
02:15 PM 49.6°F9.8°C 48.0°F8.9°C 94% 0.9 mph SE1.4 kmh SE 2.9 mph4.7 kmh 30.10 in1019.3 mb 0.00 in0.0 mm 0.00 in0.0 mm 0.31 in7.9 mm
02:10 PM 49.5°F9.7°C 47.8°F8.8°C 94% 0.9 mph E1.4 kmh E 0.9 mph1.4 kmh 30.09 in1019.0 mb 0.00 in0.0 mm 0.00 in0.0 mm 0.31 in7.9 mm
02:05 PM 49.1°F9.5°C 47.5°F8.6°C 94% 0.9 mph E1.4 kmh E 4.0 mph6.4 kmh 30.10 in1019.3 mb 0.00 in0.0 mm 0.00 in0.0 mm 0.31 in7.9 mm
01:59 PM 48.9°F9.4°C 47.3°F8.5°C 94% 2.0 mph E3.2 kmh E 4.0 mph6.4 kmh 30.10 in1019.3 mb 0.00 in0.0 mm 0.00 in0.0 mm 0.31 in7.9 mm
01:54 PM 48.7°F9.3°C 47.1°F8.4°C 94% 2.9 mph NE4.7 kmh NE 4.0 mph6.4 kmh 30.10 in1019.3 mb 0.00 in0.0 mm 0.00 in0.0 mm 0.31 in7.9 mm
01:49 PM 48.6°F9.2°C 46.9°F8.3°C 94% 2.0 mph ENE3.2 kmh ENE 4.9 mph7.9 kmh 30.11 in1019.6 mb 0.00 in0.0 mm 0.00 in0.0 mm 0.31 in7.9 mm
01:44 PM 48.4°F9.1°C 46.8°F8.2°C 94% 0.9 mph ENE1.4 kmh ENE 4.0 mph6.4 kmh 30.11 in1019.6 mb 0.00 in0.0 mm 0.00 in0.0 mm 0.31 in7.9 mm
01:39 PM 48.4°F9.1°C 46.8°F8.2°C 94% 0.9 mph E1.4 kmh E 2.9 mph4.7 kmh 30.11 in1019.6 mb 0.00 in0.0 mm 0.00 in0.0 mm 0.31 in7.9 mm
01:34 PM 48.4°F9.1°C 46.9°F8.3°C 95% Calm Calm 2.9 mph4.7 kmh 30.12 in1020.0 mb 0.00 in0.0 mm 0.00 in0.0 mm 0.31 in7.9 mm
01:29 PM 48.0°F8.9°C 46.6°F8.1°C 95% 0.9 mph ENE1.4 kmh ENE 2.0 mph3.2 kmh 30.13 in1020.3 mb 0.00 in0.0 mm 0.00 in0.0 mm 0.31 in7.9 mm
01:24 PM 47.8°F8.8°C 46.4°F8.0°C 95% 2.0 mph ENE3.2 kmh ENE 4.9 mph7.9 kmh 30.13 in1020.3 mb 0.00 in0.0 mm 0.00 in0.0 mm 0.31 in7.9 mm
01:19 PM 47.7°F8.7°C 46.2°F7.9°C 95% 2.0 mph ENE3.2 kmh ENE 4.0 mph6.4 kmh 30.13 in1020.3 mb 0.00 in0.0 mm 0.00 in0.0 mm 0.31 in7.9 mm
01:14 PM 47.5°F8.6°C 46.0°F7.8°C 95% 0.9 mph ENE1.4 kmh ENE 4.0 mph6.4 kmh 30.13 in1020.3 mb 0.00 in0.0 mm 0.00 in0.0 mm 0.31 in7.9 mm
01:09 PM 47.5°F8.6°C 46.0°F7.8°C 95% 0.9 mph NE1.4 kmh NE 4.0 mph6.4 kmh 30.14 in1020.7 mb 0.00 in0.0 mm 0.00 in0.0 mm 0.31 in7.9 mm
01:04 PM 47.1°F8.4°C 45.7°F7.6°C 95% 0.9 mph NW1.4 kmh NW 2.9 mph4.7 kmh 30.15 in1021.0 mb 0.00 in0.0 mm 0.00 in0.0 mm 0.31 in7.9 mm
12:59 PM 47.1°F8.4°C 45.7°F7.6°C 95% 0.9 mph NNW1.4 kmh NNW 2.0 mph3.2 kmh 30.15 in1021.0 mb 0.00 in0.0 mm 0.00 in0.0 mm 0.31 in7.9 mm
12:54 PM 46.8°F8.2°C 45.3°F7.4°C 95% 2.0 mph NE3.2 kmh NE 4.0 mph6.4 kmh 30.15 in1021.0 mb 0.00 in0.0 mm 0.00 in0.0 mm 0.31 in7.9 mm
12:49 PM 46.6°F8.1°C 45.1°F7.3°C 95% 2.0 mph E3.2 kmh E 4.9 mph7.9 kmh 30.16 in1021.3 mb 0.00 in0.0 mm 0.00 in0.0 mm 0.31 in7.9 mm
12:44 PM 46.4°F8.0°C 45.0°F7.2°C 95% 0.9 mph ESE1.4 kmh ESE 4.0 mph6.4 kmh 30.16 in1021.3 mb 0.00 in0.0 mm 0.00 in0.0 mm 0.31 in7.9 mm
12:39 PM 46.6°F8.1°C 45.1°F7.3°C 95% 0.9 mph ENE1.4 kmh ENE 2.9 mph4.7 kmh 30.16 in1021.3 mb 0.00 in0.0 mm 0.00 in0.0 mm 0.31 in7.9 mm
12:34 PM 46.4°F8.0°C 45.0°F7.2°C 95% 0.9 mph E1.4 kmh E 2.9 mph4.7 kmh 30.16 in1021.3 mb 0.00 in0.0 mm 0.00 in0.0 mm 0.31 in7.9 mm
12:29 PM 46.0°F7.8°C 44.6°F7.0°C 95% 0.9 mph NW1.4 kmh NW 4.9 mph7.9 kmh 30.16 in1021.3 mb 0.00 in0.0 mm 0.00 in0.0 mm 0.31 in7.9 mm
12:24 PM 45.9°F7.7°C 44.8°F7.1°C 96% 0.9 mph E1.4 kmh E 4.0 mph6.4 kmh 30.18 in1022.0 mb 0.00 in0.0 mm 0.00 in0.0 mm 0.31 in7.9 mm
12:19 PM 45.1°F7.3°C 43.9°F6.6°C 95% 0.9 mph E1.4 kmh E 4.0 mph6.4 kmh 30.18 in1022.0 mb 0.00 in0.0 mm 0.00 in0.0 mm 0.31 in7.9 mm
12:14 PM 45.0°F7.2°C 43.9°F6.6°C 96% 0.9 mph ENE1.4 kmh ENE 4.9 mph7.9 kmh 30.18 in1022.0 mb 0.00 in0.0 mm 0.00 in0.0 mm 0.31 in7.9 mm
12:09 PM 44.4°F6.9°C 43.2°F6.2°C 95% 0.9 mph WNW1.4 kmh WNW 2.9 mph4.7 kmh 30.18 in1022.0 mb 0.00 in0.0 mm 0.00 in0.0 mm 0.31 in7.9 mm
12:04 PM 44.4°F6.9°C 43.2°F6.2°C 95% 0.9 mph N1.4 kmh N 2.9 mph4.7 kmh 30.20 in1022.7 mb 0.00 in0.0 mm 0.00 in0.0 mm 0.31 in7.9 mm
11:59 AM 44.2°F6.8°C 43.0°F6.1°C 95% Calm Calm 2.0 mph3.2 kmh 30.21 in1023.0 mb 0.00 in0.0 mm 0.00 in0.0 mm 0.31 in7.9 mm
11:54 AM 43.9°F6.6°C 42.6°F5.9°C 95% Calm Calm 2.0 mph3.2 kmh 30.21 in1023.0 mb 0.00 in0.0 mm 0.00 in0.0 mm 0.31 in7.9 mm
11:48 AM 43.7°F6.5°C 42.4°F5.8°C 95% Calm Calm 2.9 mph4.7 kmh 30.22 in1023.4 mb 0.00 in0.0 mm 0.00 in0.0 mm 0.31 in7.9 mm
11:43 AM 43.7°F6.5°C 42.4°F5.8°C 95% Calm Calm 2.0 mph3.2 kmh 30.22 in1023.4 mb 0.00 in0.0 mm 0.00 in0.0 mm 0.31 in7.9 mm
11:38 AM 43.5°F6.4°C 42.3°F5.7°C 95% 0.9 mph NW1.4 kmh NW 2.9 mph4.7 kmh 30.22 in1023.4 mb 0.00 in0.0 mm 0.00 in0.0 mm 0.31 in7.9 mm
11:33 AM 43.5°F6.4°C 42.3°F5.7°C 95% 0.9 mph NNW1.4 kmh NNW 4.9 mph7.9 kmh 30.22 in1023.4 mb 0.00 in0.0 mm 0.00 in0.0 mm 0.31 in7.9 mm
11:28 AM 43.3°F6.3°C 42.1°F5.6°C 95% 2.0 mph NNW3.2 kmh NNW 4.9 mph7.9 kmh 30.23 in1023.7 mb 0.00 in0.0 mm 0.00 in0.0 mm 0.31 in7.9 mm
11:23 AM 43.5°F6.4°C 42.3°F5.7°C 95% 2.0 mph N3.2 kmh N 4.0 mph6.4 kmh 30.23 in1023.7 mb 0.00 in0.0 mm 0.00 in0.0 mm 0.31 in7.9 mm
11:18 AM 43.3°F6.3°C 42.1°F5.6°C 95% 0.9 mph NW1.4 kmh NW 4.9 mph7.9 kmh 30.23 in1023.7 mb 0.00 in0.0 mm 0.00 in0.0 mm 0.31 in7.9 mm
11:13 AM 43.3°F6.3°C 42.1°F5.6°C 95% 2.0 mph WNW3.2 kmh WNW 4.0 mph6.4 kmh 30.23 in1023.7 mb 0.00 in0.0 mm 0.00 in0.0 mm 0.31 in7.9 mm
11:08 AM 43.3°F6.3°C 42.1°F5.6°C 95% 2.0 mph NW3.2 kmh NW 4.9 mph7.9 kmh 30.23 in1023.7 mb 0.00 in0.0 mm 0.00 in0.0 mm 0.31 in7.9 mm
11:03 AM 43.3°F6.3°C 42.1°F5.6°C 95% 2.0 mph NW3.2 kmh NW 4.9 mph7.9 kmh 30.23 in1023.7 mb 0.00 in0.0 mm 0.00 in0.0 mm 0.31 in7.9 mm
10:58 AM 43.5°F6.4°C 42.3°F5.7°C 95% 2.0 mph NW3.2 kmh NW 4.9 mph7.9 kmh 30.24 in1024.0 mb 0.00 in0.0 mm 0.00 in0.0 mm 0.31 in7.9 mm
10:53 AM 43.3°F6.3°C 42.1°F5.6°C 95% 0.9 mph WNW1.4 kmh WNW 2.9 mph4.7 kmh 30.23 in1023.7 mb 0.00 in0.0 mm 0.00 in0.0 mm 0.31 in7.9 mm
10:48 AM 43.2°F6.2°C 41.9°F5.5°C 95% 0.9 mph WNW1.4 kmh WNW 4.0 mph6.4 kmh 30.23 in1023.7 mb 0.00 in0.0 mm 0.00 in0.0 mm 0.31 in7.9 mm
10:43 AM 43.3°F6.3°C 42.1°F5.6°C 95% 0.9 mph W1.4 kmh W 2.0 mph3.2 kmh 30.23 in1023.7 mb 0.00 in0.0 mm 0.00 in0.0 mm 0.31 in7.9 mm
10:38 AM 43.3°F6.3°C 42.1°F5.6°C 95% 0.9 mph WNW1.4 kmh WNW 2.9 mph4.7 kmh 30.23 in1023.7 mb 0.00 in0.0 mm 0.00 in0.0 mm 0.31 in7.9 mm
10:33 AM 43.3°F6.3°C 42.1°F5.6°C 95% 0.9 mph WNW1.4 kmh WNW 2.9 mph4.7 kmh 30.22 in1023.4 mb 0.00 in0.0 mm 0.00 in0.0 mm 0.31 in7.9 mm
10:28 AM 43.3°F6.3°C 42.1°F5.6°C 95% 0.9 mph W1.4 kmh W 4.0 mph6.4 kmh 30.22 in1023.4 mb 0.00 in0.0 mm 0.00 in0.0 mm 0.31 in7.9 mm
10:23 AM 43.5°F6.4°C 42.3°F5.7°C 95% 0.9 mph W1.4 kmh W 2.9 mph4.7 kmh 30.22 in1023.4 mb 0.00 in0.0 mm 0.00 in0.0 mm 0.31 in7.9 mm
10:18 AM 43.7°F6.5°C 42.4°F5.8°C 95% Calm Calm 0.9 mph1.4 kmh 30.22 in1023.4 mb 0.00 in0.0 mm 0.00 in0.0 mm 0.31 in7.9 mm
10:13 AM 43.5°F6.4°C 42.3°F5.7°C 95% Calm Calm 0.9 mph1.4 kmh 30.22 in1023.4 mb 0.00 in0.0 mm 0.00 in0.0 mm 0.31 in7.9 mm
10:08 AM 43.5°F6.4°C 42.3°F5.7°C 95% Calm Calm 0.9 mph1.4 kmh 30.21 in1023.0 mb 0.00 in0.0 mm 0.00 in0.0 mm 0.31 in7.9 mm
10:03 AM 43.3°F6.3°C 42.1°F5.6°C 95% Calm Calm 0.9 mph1.4 kmh 30.21 in1023.0 mb 0.00 in0.0 mm 0.00 in0.0 mm 0.31 in7.9 mm
09:57 AM 43.3°F6.3°C 42.1°F5.6°C 95% 0.9 mph E1.4 kmh E -- 30.21 in1023.0 mb 0.00 in0.0 mm 0.00 in0.0 mm 0.31 in7.9 mm
09:52 AM 43.2°F6.2°C 41.9°F5.5°C 95% 2.9 mph E4.7 kmh E 6.0 mph9.7 kmh 30.20 in1022.7 mb 0.00 in0.0 mm 0.00 in0.0 mm 0.31 in7.9 mm
09:47 AM 43.2°F6.2°C 41.9°F5.5°C 95% 2.9 mph E4.7 kmh E 6.9 mph11.1 kmh 30.19 in1022.4 mb 0.00 in0.0 mm 0.00 in0.0 mm 0.31 in7.9 mm
09:42 AM 43.2°F6.2°C 42.1°F5.6°C 96% 2.0 mph ENE3.2 kmh ENE 4.9 mph7.9 kmh 30.19 in1022.4 mb 0.00 in0.0 mm 0.00 in0.0 mm 0.31 in7.9 mm
09:37 AM 42.8°F6.0°C 41.5°F5.3°C 95% 2.0 mph ENE3.2 kmh ENE 4.0 mph6.4 kmh 30.20 in1022.7 mb 0.00 in0.0 mm 0.00 in0.0 mm 0.31 in7.9 mm
09:32 AM 42.4°F5.8°C 41.4°F5.2°C 96% 2.0 mph ENE3.2 kmh ENE 4.0 mph6.4 kmh 30.20 in1022.7 mb 0.00 in0.0 mm 0.00 in0.0 mm 0.31 in7.9 mm
09:27 AM 42.3°F5.7°C 41.0°F5.0°C 95% 0.9 mph ENE1.4 kmh ENE 2.9 mph4.7 kmh 30.20 in1022.7 mb 0.00 in0.0 mm 0.00 in0.0 mm 0.31 in7.9 mm
09:22 AM 42.1°F5.6°C 40.8°F4.9°C 95% Calm Calm 4.0 mph6.4 kmh 30.20 in1022.7 mb 0.00 in0.0 mm 0.00 in0.0 mm 0.31 in7.9 mm
09:17 AM 41.7°F5.4°C 40.5°F4.7°C 95% Calm Calm 2.0 mph3.2 kmh 30.20 in1022.7 mb 0.00 in0.0 mm 0.00 in0.0 mm 0.31 in7.9 mm
09:12 AM 41.5°F5.3°C 40.3°F4.6°C 95% 0.9 mph ENE1.4 kmh ENE 2.0 mph3.2 kmh 30.20 in1022.7 mb 0.00 in0.0 mm 0.00 in0.0 mm 0.31 in7.9 mm
09:07 AM 41.4°F5.2°C 40.1°F4.5°C 95% 2.0 mph ENE3.2 kmh ENE 2.9 mph4.7 kmh 30.20 in1022.7 mb 0.00 in0.0 mm 0.00 in0.0 mm 0.31 in7.9 mm
09:02 AM 41.2°F5.1°C 39.9°F4.4°C 95% 2.0 mph E3.2 kmh E 4.0 mph6.4 kmh 30.20 in1022.7 mb 0.00 in0.0 mm 0.00 in0.0 mm 0.31 in7.9 mm
08:57 AM 41.2°F5.1°C 39.9°F4.4°C 95% 2.0 mph ENE3.2 kmh ENE 4.0 mph6.4 kmh 30.20 in1022.7 mb 0.00 in0.0 mm 0.00 in0.0 mm 0.31 in7.9 mm
08:52 AM 41.0°F5.0°C 39.7°F4.3°C 95% 2.0 mph ENE3.2 kmh ENE 4.0 mph6.4 kmh 30.20 in1022.7 mb 0.00 in0.0 mm 0.00 in0.0 mm 0.31 in7.9 mm
08:47 AM 40.8°F4.9°C 39.6°F4.2°C 95% 0.9 mph NE1.4 kmh NE 2.9 mph4.7 kmh 30.21 in1023.0 mb 0.00 in0.0 mm 0.00 in0.0 mm 0.31 in7.9 mm
08:42 AM 40.8°F4.9°C 39.6°F4.2°C 95% 0.9 mph N1.4 kmh N 2.9 mph4.7 kmh 30.21 in1023.0 mb 0.00 in0.0 mm 0.00 in0.0 mm 0.31 in7.9 mm
08:36 AM 40.8°F4.9°C 39.6°F4.2°C 95% 0.9 mph NNW1.4 kmh NNW 4.0 mph6.4 kmh 30.22 in1023.4 mb 0.00 in0.0 mm 0.00 in0.0 mm 0.31 in7.9 mm
08:31 AM 40.8°F4.9°C 39.6°F4.2°C 95% 0.9 mph NW1.4 kmh NW 2.9 mph4.7 kmh 30.21 in1023.0 mb 0.00 in0.0 mm 0.00 in0.0 mm 0.31 in7.9 mm
08:26 AM 40.8°F4.9°C 39.6°F4.2°C 95% 0.9 mph E1.4 kmh E 2.9 mph4.7 kmh 30.21 in1023.0 mb 0.00 in0.0 mm 0.00 in0.0 mm 0.31 in7.9 mm
08:21 AM 40.8°F4.9°C 39.6°F4.2°C 95% 0.9 mph NNW1.4 kmh NNW 2.9 mph4.7 kmh 30.22 in1023.4 mb 0.00 in0.0 mm 0.00 in0.0 mm 0.31 in7.9 mm
08:16 AM 40.8°F4.9°C 39.6°F4.2°C 95% 0.9 mph NW1.4 kmh NW 4.0 mph6.4 kmh 30.22 in1023.4 mb 0.00 in0.0 mm 0.00 in0.0 mm 0.31 in7.9 mm
08:11 AM 40.6°F4.8°C 39.4°F4.1°C 95% 0.9 mph NW1.4 kmh NW 2.9 mph4.7 kmh 30.22 in1023.4 mb 0.00 in0.0 mm 0.00 in0.0 mm 0.31 in7.9 mm
08:06 AM 40.6°F4.8°C 39.4°F4.1°C 95% 0.9 mph NW1.4 kmh NW 2.9 mph4.7 kmh 30.22 in1023.4 mb 0.00 in0.0 mm 0.00 in0.0 mm 0.31 in7.9 mm
08:01 AM 40.6°F4.8°C 39.4°F4.1°C 95% 0.9 mph NNE1.4 kmh NNE 2.0 mph3.2 kmh 30.21 in1023.0 mb 0.00 in0.0 mm 0.00 in0.0 mm 0.31 in7.9 mm
07:56 AM 40.6°F4.8°C 39.4°F4.1°C 95% 0.9 mph NW1.4 kmh NW 2.9 mph4.7 kmh 30.21 in1023.0 mb 0.00 in0.0 mm 0.00 in0.0 mm 0.31 in7.9 mm
07:51 AM 40.6°F4.8°C 39.4°F4.1°C 95% Calm Calm 2.0 mph3.2 kmh 30.22 in1023.4 mb 0.00 in0.0 mm 0.00 in0.0 mm 0.31 in7.9 mm
07:46 AM 40.5°F4.7°C 39.2°F4.0°C 95% Calm Calm 0.9 mph1.4 kmh 30.22 in1023.4 mb 0.00 in0.0 mm 0.00 in0.0 mm 0.31 in7.9 mm
07:41 AM 40.5°F4.7°C 39.2°F4.0°C 95% 0.9 mph N1.4 kmh N 0.9 mph1.4 kmh 30.22 in1023.4 mb 0.00 in0.0 mm 0.00 in0.0 mm 0.31 in7.9 mm
07:36 AM 40.3°F4.6°C 39.0°F3.9°C 95% 2.0 mph ENE3.2 kmh ENE 2.9 mph4.7 kmh 30.22 in1023.4 mb 0.00 in0.0 mm 0.00 in0.0 mm 0.31 in7.9 mm
07:31 AM 40.3°F4.6°C 39.0°F3.9°C 95% 0.9 mph ENE1.4 kmh ENE 4.0 mph6.4 kmh 30.21 in1023.0 mb 0.00 in0.0 mm 0.00 in0.0 mm 0.31 in7.9 mm
07:26 AM 40.3°F4.6°C 39.0°F3.9°C 95% Calm Calm 2.0 mph3.2 kmh 30.22 in1023.4 mb 0.00 in0.0 mm 0.00 in0.0 mm 0.31 in7.9 mm
07:21 AM 40.1°F4.5°C 38.8°F3.8°C 95% Calm Calm 0.9 mph1.4 kmh 30.22 in1023.4 mb 0.00 in0.0 mm 0.00 in0.0 mm 0.31 in7.9 mm
07:16 AM 40.1°F4.5°C 38.8°F3.8°C 95% Calm Calm 2.0 mph3.2 kmh 30.22 in1023.4 mb 0.00 in0.0 mm 0.00 in0.0 mm 0.31 in7.9 mm
07:11 AM 40.1°F4.5°C 38.8°F3.8°C 95% Calm Calm 2.0 mph3.2 kmh 30.22 in1023.4 mb 0.00 in0.0 mm 0.00 in0.0 mm 0.31 in7.9 mm
07:05 AM 39.9°F4.4°C 38.7°F3.7°C 95% Calm Calm 2.0 mph3.2 kmh 30.23 in1023.7 mb 0.00 in0.0 mm 0.00 in0.0 mm 0.31 in7.9 mm
07:00 AM 39.9°F4.4°C 38.7°F3.7°C 95% Calm Calm 2.0 mph3.2 kmh 30.22 in1023.4 mb 0.01 in0.3 mm 0.00 in0.0 mm 0.31 in7.9 mm
06:55 AM 39.9°F4.4°C 38.7°F3.7°C 95% Calm Calm 0.9 mph1.4 kmh 30.22 in1023.4 mb 0.02 in0.5 mm 0.00 in0.0 mm 0.31 in7.9 mm
06:50 AM 39.7°F4.3°C 38.5°F3.6°C 95% Calm Calm 0.9 mph1.4 kmh 30.22 in1023.4 mb 0.03 in0.8 mm 0.00 in0.0 mm 0.31 in7.9 mm
06:45 AM 39.7°F4.3°C 38.5°F3.6°C 95% Calm Calm 0.9 mph1.4 kmh 30.23 in1023.7 mb 0.03 in0.8 mm 0.00 in0.0 mm 0.31 in7.9 mm
06:40 AM 39.7°F4.3°C 38.5°F3.6°C 95% Calm Calm 0.9 mph1.4 kmh 30.22 in1023.4 mb 0.04 in1.0 mm 0.00 in0.0 mm 0.31 in7.9 mm
06:35 AM 39.6°F4.2°C 38.3°F3.5°C 95% Calm Calm 0.9 mph1.4 kmh 30.23 in1023.7 mb 0.04 in1.0 mm 0.00 in0.0 mm 0.31 in7.9 mm
06:30 AM 39.6°F4.2°C 38.3°F3.5°C 95% Calm Calm 0.9 mph1.4 kmh 30.22 in1023.4 mb 0.05 in1.3 mm 0.00 in0.0 mm 0.31 in7.9 mm
06:25 AM 39.6°F4.2°C 38.3°F3.5°C 95% 0.9 mph WNW1.4 kmh WNW 0.9 mph1.4 kmh 30.23 in1023.7 mb 0.06 in1.5 mm 0.00 in0.0 mm 0.31 in7.9 mm
06:19 AM 39.6°F4.2°C 38.3°F3.5°C 95% 0.9 mph WNW1.4 kmh WNW 2.9 mph4.7 kmh 30.22 in1023.4 mb 0.07 in1.8 mm 0.00 in0.0 mm 0.31 in7.9 mm
06:14 AM 39.6°F4.2°C 38.3°F3.5°C 95% Calm Calm 2.9 mph4.7 kmh 30.22 in1023.4 mb 0.07 in1.8 mm 0.00 in0.0 mm 0.31 in7.9 mm
06:09 AM 39.6°F4.2°C 38.3°F3.5°C 95% Calm Calm 0.9 mph1.4 kmh 30.22 in1023.4 mb 0.08 in2.0 mm 0.00 in0.0 mm 0.31 in7.9 mm
06:04 AM 39.6°F4.2°C 37.9°F3.3°C 94% Calm Calm 2.9 mph4.7 kmh 30.20 in1022.7 mb 0.09 in2.3 mm 0.00 in0.0 mm 0.31 in7.9 mm
05:59 AM 39.4°F4.1°C 38.1°F3.4°C 95% Calm Calm 2.0 mph3.2 kmh 30.21 in1023.0 mb 0.09 in2.3 mm 0.00 in0.0 mm 0.30 in7.6 mm
05:54 AM 39.4°F4.1°C 37.8°F3.2°C 94% 0.9 mph ENE1.4 kmh ENE 2.9 mph4.7 kmh 30.21 in1023.0 mb 0.09 in2.3 mm 0.12 in3.0 mm 0.29 in7.4 mm
05:49 AM 39.4°F4.1°C 37.8°F3.2°C 94% 2.0 mph NW3.2 kmh NW 6.0 mph9.7 kmh 30.22 in1023.4 mb 0.08 in2.0 mm 0.00 in0.0 mm 0.28 in7.1 mm
05:44 AM 39.4°F4.1°C 37.8°F3.2°C 94% 0.9 mph ENE1.4 kmh ENE 4.9 mph7.9 kmh 30.21 in1023.0 mb 0.08 in2.0 mm 0.12 in3.0 mm 0.28 in7.1 mm
05:39 AM 39.2°F4.0°C 37.6°F3.1°C 94% 0.9 mph N1.4 kmh N 2.9 mph4.7 kmh 30.20 in1022.7 mb 0.07 in1.8 mm 0.00 in0.0 mm 0.27 in6.9 mm
05:34 AM 39.2°F4.0°C 37.6°F3.1°C 94% 0.9 mph WNW1.4 kmh WNW 2.9 mph4.7 kmh 30.22 in1023.4 mb 0.07 in1.8 mm 0.00 in0.0 mm 0.27 in6.9 mm
05:29 AM 39.0°F3.9°C 37.4°F3.0°C 94% Calm Calm 2.0 mph3.2 kmh 30.22 in1023.4 mb 0.07 in1.8 mm 0.12 in3.0 mm 0.26 in6.6 mm
05:24 AM 39.0°F3.9°C 37.4°F3.0°C 94% Calm Calm 2.9 mph4.7 kmh 30.22 in1023.4 mb 0.06 in1.5 mm 0.00 in0.0 mm 0.25 in6.4 mm
05:19 AM 39.0°F3.9°C 37.4°F3.0°C 94% Calm Calm 0.9 mph1.4 kmh 30.22 in1023.4 mb 0.06 in1.5 mm 0.00 in0.0 mm 0.24 in6.1 mm
05:14 AM 38.8°F3.8°C 37.2°F2.9°C 94% 0.9 mph NW1.4 kmh NW 0.9 mph1.4 kmh 30.22 in1023.4 mb 0.06 in1.5 mm 0.12 in3.0 mm 0.24 in6.1 mm
05:09 AM 38.8°F3.8°C 37.2°F2.9°C 94% 0.9 mph NW1.4 kmh NW 2.9 mph4.7 kmh 30.23 in1023.7 mb 0.05 in1.3 mm 0.00 in0.0 mm 0.23 in5.8 mm
05:04 AM 38.8°F3.8°C 37.2°F2.9°C 94% 0.9 mph NNW1.4 kmh NNW 2.0 mph3.2 kmh 30.22 in1023.4 mb 0.05 in1.3 mm 0.01 in0.3 mm 0.22 in5.6 mm
04:59 AM 38.8°F3.8°C 37.2°F2.9°C 94% 2.0 mph E3.2 kmh E 4.9 mph7.9 kmh 30.22 in1023.4 mb 0.04 in1.0 mm 0.00 in0.0 mm 0.21 in5.3 mm
04:54 AM 38.8°F3.8°C 37.2°F2.9°C 94% 2.9 mph ENE4.7 kmh ENE 6.0 mph9.7 kmh 30.22 in1023.4 mb 0.05 in1.3 mm 0.00 in0.0 mm 0.20 in5.1 mm
04:49 AM 38.8°F3.8°C 37.2°F2.9°C 94% 2.9 mph ENE4.7 kmh ENE 8.1 mph13.0 kmh 30.23 in1023.7 mb 0.08 in2.0 mm 0.00 in0.0 mm 0.20 in5.1 mm
04:44 AM 38.8°F3.8°C 37.2°F2.9°C 94% 0.9 mph E1.4 kmh E 4.0 mph6.4 kmh 30.25 in1024.4 mb 0.08 in2.0 mm 0.00 in0.0 mm 0.20 in5.1 mm
04:39 AM 38.8°F3.8°C 37.2°F2.9°C 94% 0.9 mph ENE1.4 kmh ENE 2.9 mph4.7 kmh 30.25 in1024.4 mb 0.09 in2.3 mm 0.00 in0.0 mm 0.20 in5.1 mm
04:34 AM 38.8°F3.8°C 37.2°F2.9°C 94% Calm Calm 0.9 mph1.4 kmh 30.25 in1024.4 mb 0.10 in2.5 mm 0.00 in0.0 mm 0.20 in5.1 mm
04:29 AM 38.8°F3.8°C 37.2°F2.9°C 94% 0.9 mph NW1.4 kmh NW 2.9 mph4.7 kmh 30.23 in1023.7 mb 0.11 in2.8 mm 0.00 in0.0 mm 0.19 in4.8 mm
04:24 AM 38.7°F3.7°C 37.0°F2.8°C 94% 0.9 mph N1.4 kmh N 2.0 mph3.2 kmh 30.22 in1023.4 mb 0.13 in3.3 mm 0.00 in0.0 mm 0.19 in4.8 mm
04:19 AM 38.7°F3.7°C 37.0°F2.8°C 94% Calm Calm 2.0 mph3.2 kmh 30.22 in1023.4 mb 0.16 in4.1 mm 0.00 in0.0 mm 0.18 in4.6 mm
04:14 AM 38.7°F3.7°C 37.0°F2.8°C 94% Calm Calm 2.0 mph3.2 kmh 30.23 in1023.7 mb 0.17 in4.3 mm 0.00 in0.0 mm 0.18 in4.6 mm
04:09 AM 38.7°F3.7°C 37.0°F2.8°C 94% 0.9 mph N1.4 kmh N 2.0 mph3.2 kmh 30.24 in1024.0 mb 0.17 in4.3 mm 0.12 in3.0 mm 0.18 in4.6 mm
04:04 AM 38.7°F3.7°C 37.0°F2.8°C 94% 0.9 mph 1.4 kmh 4.9 mph7.9 kmh 30.23 in1023.7 mb 0.16 in4.1 mm 0.00 in0.0 mm 0.17 in4.3 mm
03:59 AM 38.7°F3.7°C 36.9°F2.7°C 93% 0.9 mph NW1.4 kmh NW 4.9 mph7.9 kmh 30.24 in1024.0 mb 0.17 in4.3 mm 0.36 in9.1 mm 0.17 in4.3 mm
03:54 AM 38.8°F3.8°C 37.0°F2.8°C 93% 0.9 mph NW1.4 kmh NW 2.9 mph4.7 kmh 30.24 in1024.0 mb 0.14 in3.6 mm 0.24 in6.1 mm 0.15 in3.8 mm
03:49 AM 38.8°F3.8°C 37.0°F2.8°C 93% 0.9 mph NW1.4 kmh NW 4.0 mph6.4 kmh 30.24 in1024.0 mb 0.12 in3.0 mm 0.00 in0.0 mm 0.12 in3.0 mm
03:44 AM 39.0°F3.9°C 37.2°F2.9°C 93% 0.9 mph NW1.4 kmh NW 2.9 mph4.7 kmh 30.23 in1023.7 mb 0.12 in3.0 mm 0.12 in3.0 mm 0.12 in3.0 mm
03:39 AM 39.0°F3.9°C 37.2°F2.9°C 93% 0.9 mph NNW1.4 kmh NNW 4.0 mph6.4 kmh 30.22 in1023.4 mb 0.11 in2.8 mm 0.12 in3.0 mm 0.11 in2.8 mm
03:34 AM 38.8°F3.8°C 37.0°F2.8°C 93% 0.9 mph NW1.4 kmh NW 4.0 mph6.4 kmh 30.24 in1024.0 mb 0.10 in2.5 mm 0.20 in5.1 mm 0.10 in2.5 mm
03:28 AM 39.0°F3.9°C 37.2°F2.9°C 93% Calm Calm 2.9 mph4.7 kmh 30.24 in1024.0 mb 0.08 in2.0 mm 0.24 in6.1 mm 0.08 in2.0 mm
03:23 AM 39.0°F3.9°C 37.2°F2.9°C 93% 0.9 mph NNE1.4 kmh NNE 2.0 mph3.2 kmh 30.24 in1024.0 mb 0.06 in1.5 mm 0.48 in12.2 mm 0.06 in1.5 mm
03:18 AM 39.0°F3.9°C 37.2°F2.9°C 93% 0.9 mph NNE1.4 kmh NNE 4.9 mph7.9 kmh 30.23 in1023.7 mb 0.02 in0.5 mm 0.12 in3.0 mm 0.03 in0.8 mm
03:13 AM 39.0°F3.9°C 37.2°F2.9°C 93% Calm Calm 4.9 mph7.9 kmh 30.25 in1024.4 mb 0.01 in0.3 mm 0.00 in0.0 mm 0.02 in0.5 mm
03:08 AM 39.0°F3.9°C 37.2°F2.9°C 93% Calm Calm 0.9 mph1.4 kmh 30.22 in1023.4 mb 0.01 in0.3 mm 0.00 in0.0 mm 0.01 in0.3 mm
03:03 AM 39.0°F3.9°C 37.2°F2.9°C 93% Calm Calm 0.9 mph1.4 kmh 30.23 in1023.7 mb 0.01 in0.3 mm 0.01 in0.3 mm 0.01 in0.3 mm
02:58 AM 39.0°F3.9°C 37.2°F2.9°C 93% Calm Calm 2.0 mph3.2 kmh 30.22 in1023.4 mb 0.00 in0.0 mm 0.00 in0.0 mm 0.00 in0.0 mm
02:53 AM 39.0°F3.9°C 37.2°F2.9°C 93% Calm Calm 2.0 mph3.2 kmh 30.22 in1023.4 mb 0.00 in0.0 mm 0.00 in0.0 mm 0.00 in0.0 mm
02:48 AM 39.0°F3.9°C 37.2°F2.9°C 93% Calm Calm 0.9 mph1.4 kmh 30.23 in1023.7 mb 0.00 in0.0 mm 0.00 in0.0 mm 0.00 in0.0 mm
02:43 AM 39.0°F3.9°C 37.2°F2.9°C 93% Calm Calm 0.9 mph1.4 kmh 30.23 in1023.7 mb 0.00 in0.0 mm 0.00 in0.0 mm 0.00 in0.0 mm
02:38 AM 39.0°F3.9°C 37.2°F2.9°C 93% Calm Calm 0.9 mph1.4 kmh 30.23 in1023.7 mb 0.00 in0.0 mm 0.00 in0.0 mm 0.00 in0.0 mm
02:33 AM 39.0°F3.9°C 37.2°F2.9°C 93% Calm Calm 0.9 mph1.4 kmh 30.23 in1023.7 mb 0.00 in0.0 mm 0.00 in0.0 mm 0.00 in0.0 mm
02:28 AM 39.0°F3.9°C 37.2°F2.9°C 93% Calm Calm 2.0 mph3.2 kmh 30.22 in1023.4 mb 0.00 in0.0 mm 0.00 in0.0 mm 0.00 in0.0 mm
02:23 AM 39.0°F3.9°C 37.2°F2.9°C 93% Calm Calm 2.0 mph3.2 kmh 30.23 in1023.7 mb 0.00 in0.0 mm 0.00 in0.0 mm 0.00 in0.0 mm
02:17 AM 39.0°F3.9°C 37.2°F2.9°C 93% Calm Calm 0.9 mph1.4 kmh 30.23 in1023.7 mb 0.00 in0.0 mm 0.00 in0.0 mm 0.00 in0.0 mm
02:12 AM 39.0°F3.9°C 37.2°F2.9°C 93% Calm Calm 2.0 mph3.2 kmh 30.24 in1024.0 mb 0.00 in0.0 mm 0.00 in0.0 mm 0.00 in0.0 mm
02:07 AM 39.0°F3.9°C 37.2°F2.9°C 93% Calm Calm 2.0 mph3.2 kmh 30.25 in1024.4 mb 0.00 in0.0 mm 0.00 in0.0 mm 0.00 in0.0 mm
02:02 AM 39.0°F3.9°C 37.2°F2.9°C 93% 0.9 mph NE1.4 kmh NE 0.9 mph1.4 kmh 30.24 in1024.0 mb 0.00 in0.0 mm 0.00 in0.0 mm 0.00 in0.0 mm
01:57 AM 39.2°F4.0°C 37.4°F3.0°C 93% 0.9 mph NE1.4 kmh NE 2.9 mph4.7 kmh 30.24 in1024.0 mb 0.00 in0.0 mm 0.00 in0.0 mm 0.00 in0.0 mm
01:52 AM 39.2°F4.0°C 37.4°F3.0°C 93% Calm Calm 2.9 mph4.7 kmh 30.24 in1024.0 mb 0.00 in0.0 mm 0.00 in0.0 mm 0.00 in0.0 mm
01:47 AM 39.2°F4.0°C 37.4°F3.0°C 93% Calm Calm 2.0 mph3.2 kmh 30.24 in1024.0 mb 0.00 in0.0 mm 0.00 in0.0 mm 0.00 in0.0 mm
01:42 AM 39.2°F4.0°C 37.4°F3.0°C 93% Calm Calm 0.9 mph1.4 kmh 30.25 in1024.4 mb 0.00 in0.0 mm 0.00 in0.0 mm 0.00 in0.0 mm
01:37 AM 39.2°F4.0°C 37.4°F3.0°C 93% Calm Calm -- 30.24 in1024.0 mb 0.00 in0.0 mm 0.00 in0.0 mm 0.00 in0.0 mm
01:32 AM 39.2°F4.0°C 37.4°F3.0°C 93% 0.9 mph SW1.4 kmh SW -- 30.25 in1024.4 mb 0.00 in0.0 mm 0.00 in0.0 mm 0.00 in0.0 mm
01:27 AM 39.2°F4.0°C 37.4°F3.0°C 93% 0.9 mph SW1.4 kmh SW 2.9 mph4.7 kmh 30.26 in1024.7 mb 0.00 in0.0 mm 0.00 in0.0 mm 0.00 in0.0 mm
01:22 AM 39.4°F4.1°C 37.6°F3.1°C 93% 0.9 mph SW1.4 kmh SW 2.9 mph4.7 kmh 30.26 in1024.7 mb 0.00 in0.0 mm 0.00 in0.0 mm 0.00 in0.0 mm
01:16 AM 39.4°F4.1°C 37.6°F3.1°C 93% Calm Calm 2.0 mph3.2 kmh 30.26 in1024.7 mb 0.00 in0.0 mm 0.00 in0.0 mm 0.00 in0.0 mm
01:11 AM 39.4°F4.1°C 37.6°F3.1°C 93% Calm Calm 2.0 mph3.2 kmh 30.25 in1024.4 mb 0.00 in0.0 mm 0.00 in0.0 mm 0.00 in0.0 mm
01:06 AM 39.2°F4.0°C 37.4°F3.0°C 93% Calm Calm 2.0 mph3.2 kmh 30.24 in1024.0 mb 0.00 in0.0 mm 0.00 in0.0 mm 0.00 in0.0 mm
01:01 AM 39.0°F3.9°C 37.4°F3.0°C 94% 0.9 mph NW1.4 kmh NW 2.0 mph3.2 kmh 30.24 in1024.0 mb 0.00 in0.0 mm 0.00 in0.0 mm 0.00 in0.0 mm
12:56 AM 39.0°F3.9°C 37.4°F3.0°C 94% 0.9 mph NW1.4 kmh NW 2.0 mph3.2 kmh 30.24 in1024.0 mb 0.00 in0.0 mm 0.00 in0.0 mm 0.00 in0.0 mm
12:51 AM 39.0°F3.9°C 37.4°F3.0°C 94% 0.9 mph NW1.4 kmh NW 2.9 mph4.7 kmh 30.24 in1024.0 mb 0.00 in0.0 mm 0.00 in0.0 mm 0.00 in0.0 mm
12:46 AM 39.0°F3.9°C 37.4°F3.0°C 94% 0.9 mph NW1.4 kmh NW 4.0 mph6.4 kmh 30.24 in1024.0 mb 0.00 in0.0 mm 0.00 in0.0 mm 0.00 in0.0 mm
12:41 AM 39.0°F3.9°C 37.4°F3.0°C 94% 0.9 mph NW1.4 kmh NW 4.0 mph6.4 kmh 30.24 in1024.0 mb 0.00 in0.0 mm 0.00 in0.0 mm 0.00 in0.0 mm
12:36 AM 39.2°F4.0°C 37.6°F3.1°C 94% 0.9 mph WNW1.4 kmh WNW 4.0 mph6.4 kmh 30.24 in1024.0 mb 0.00 in0.0 mm 0.00 in0.0 mm 0.00 in0.0 mm
12:31 AM 39.2°F4.0°C 37.6°F3.1°C 94% 0.9 mph WNW1.4 kmh WNW 2.9 mph4.7 kmh 30.24 in1024.0 mb 0.00 in0.0 mm 0.00 in0.0 mm 0.00 in0.0 mm
12:26 AM 39.2°F4.0°C 37.6°F3.1°C 94% Calm Calm 2.9 mph4.7 kmh 30.24 in1024.0 mb 0.00 in0.0 mm 0.00 in0.0 mm 0.00 in0.0 mm
12:21 AM 39.2°F4.0°C 37.6°F3.1°C 94% Calm Calm 2.9 mph4.7 kmh 30.24 in1024.0 mb 0.00 in0.0 mm 0.00 in0.0 mm 0.00 in0.0 mm
12:16 AM 39.4°F4.1°C 37.8°F3.2°C 94% 0.9 mph W1.4 kmh W 2.0 mph3.2 kmh 30.25 in1024.4 mb 0.00 in0.0 mm 0.00 in0.0 mm 0.00 in0.0 mm
12:11 AM 39.4°F4.1°C 37.8°F3.2°C 94% 0.9 mph W1.4 kmh W 2.0 mph3.2 kmh 30.25 in1024.4 mb 0.00 in0.0 mm 0.00 in0.0 mm 0.00 in0.0 mm
12:06 AM 39.4°F4.1°C 37.8°F3.2°C 94% 0.9 mph WNW1.4 kmh WNW 2.0 mph3.2 kmh 30.26 in1024.7 mb 0.00 in0.0 mm 0.00 in0.0 mm 0.00 in0.0 mm
12:01 AM 39.4°F4.1°C 37.8°F3.2°C 94% 0.9 mph W1.4 kmh W 2.9 mph4.7 kmh 30.25 in1024.4 mb 0.00 in0.0 mm 0.00 in0.0 mm 0.00 in0.0 mm